Time;durP1;ratioP1;P1;durP2;ratioP2;P2;SDS_P1;SDS_P2;PMS_P1;PMS_P2;Temp;Humidity;BMP_temperature;BMP_pressure;BME280_temperature;BME280_humidity;BME280_pressure;Samples;Min_cycle;Max_cycle;Signal;HPM_P1;HPM_P2
2022/12/02 00:01:26;;;;;;;41.53;20.75;;;3.50;99.90;;;;;;5078147;28;20398;-83
2022/12/02 00:03:52;;;;;;;39.47;20.55;;;2.30;99.90;;;;;;5054184;28;20054;-83
2022/12/02 00:06:31;;;;;;;37.83;20.25;;;3.40;99.90;;;;;;5077703;28;20647;-84
2022/12/02 00:09:22;;;;;;;39.75;20.42;;;3.50;99.90;;;;;;5080089;28;20494;-83
2022/12/02 00:11:49;;;;;;;40.50;20.75;;;3.40;99.90;;;;;;5085328;28;20044;-83
2022/12/02 00:14:27;;;;;;;40.08;20.17;;;3.40;99.90;;;;;;5080829;28;20059;-84
2022/12/02 00:16:56;;;;;;;37.00;19.58;;;3.30;99.90;;;;;;5069715;28;20154;-83
2022/12/02 00:19:23;;;;;;;41.22;20.27;;;4.40;99.90;;;;;;5070461;28;20036;-86
2022/12/02 00:21:50;;;;;;;37.25;20.05;;;3.40;99.90;;;;;;5069154;28;20156;-84
2022/12/02 00:24:18;;;;;;;36.70;19.48;;;4.10;99.90;;;;;;5067659;28;20040;-83
2022/12/02 00:26:44;;;;;;;37.92;19.67;;;3.40;99.90;;;;;;5075691;28;20048;-83
2022/12/02 00:29:10;;;;;;;36.47;18.40;;;5.00;99.90;;;;;;5053744;28;20107;-83
2022/12/02 00:31:39;;;;;;;39.63;20.75;;;4.10;99.90;;;;;;5093415;28;20132;-83
2022/12/02 00:34:05;;;;;;;34.00;17.95;;;3.40;99.90;;;;;;5086381;28;20055;-84
2022/12/02 00:36:31;;;;;;;35.95;19.02;;;3.40;99.90;;;;;;5090480;28;20466;-83
2022/12/02 00:38:56;;;;;;;33.45;18.20;;;4.50;99.90;;;;;;5075974;28;20050;-84
2022/12/02 00:41:23;;;;;;;36.60;18.23;;;3.40;99.90;;;;;;5072969;28;20046;-83
2022/12/02 00:46:34;;;;;;;34.63;17.95;;;5.10;99.90;;;;;;5089012;28;20051;-82
2022/12/02 00:49:14;;;;;;;32.78;17.20;;;3.40;99.90;;;;;;5082086;28;20048;-85
2022/12/02 00:51:41;;;;;;;37.33;18.38;;;3.40;99.90;;;;;;5095035;28;20040;-84
2022/12/02 00:54:08;;;;;;;34.40;18.15;;;4.10;99.90;;;;;;5091920;28;20035;-83
2022/12/02 00:56:34;;;;;;;34.92;17.27;;;3.10;99.90;;;;;;5088602;28;20121;-82
2022/12/02 00:59:00;;;;;;;35.53;17.58;;;3.80;99.90;;;;;;5096009;28;20036;-83
2022/12/02 01:01:27;;;;;;;40.20;18.33;;;3.40;99.90;;;;;;5087669;28;20036;-83
2022/12/02 01:03:53;;;;;;;35.78;17.40;;;3.30;99.90;;;;;;5088046;28;20040;-82
2022/12/02 01:06:19;;;;;;;37.08;17.85;;;3.30;99.90;;;;;;5090045;28;20047;-83
2022/12/02 01:08:44;;;;;;;33.25;16.38;;;3.50;99.90;;;;;;5095865;28;20412;-83
2022/12/02 01:11:11;;;;;;;38.22;18.02;;;;;;;;;;5104879;28;20398;-82
2022/12/02 01:13:37;;;;;;;34.22;16.42;;;3.30;99.90;;;;;;5091317;28;20047;-83
2022/12/02 01:16:03;;;;;;;34.45;16.65;;;4.10;99.90;;;;;;5108771;28;20043;-83
2022/12/02 01:18:28;;;;;;;35.25;16.63;;;3.30;99.90;;;;;;5089752;28;20043;-83
2022/12/02 01:20:55;;;;;;;34.55;16.92;;;3.30;99.90;;;;;;5081589;28;20044;-83
2022/12/02 01:23:23;;;;;;;36.17;16.80;;;5.20;99.90;;;;;;5104579;28;20496;-83
2022/12/02 01:25:52;;;;;;;36.40;18.10;;;3.30;99.90;;;;;;5108895;28;20055;-83
2022/12/02 01:28:17;;;;;;;36.90;18.50;;;3.30;99.90;;;;;;5109785;28;20105;-82
2022/12/02 01:30:44;;;;;;;35.35;17.15;;;4.50;99.90;;;;;;5100714;28;20043;-83
2022/12/02 01:33:09;;;;;;;36.42;18.83;;;3.80;99.90;;;;;;5087726;28;20040;-83
2022/12/02 01:35:35;;;;;;;39.60;18.38;;;3.30;99.90;;;;;;5088150;28;20059;-83
2022/12/02 01:38:01;;;;;;;39.95;18.75;;;3.30;99.90;;;;;;5089474;28;20064;-83
2022/12/02 01:40:28;;;;;;;40.63;18.83;;;3.40;99.90;;;;;;5076859;28;20035;-83
2022/12/02 01:42:54;;;;;;;37.03;17.80;;;4.10;99.90;;;;;;5099640;28;20413;-83
2022/12/02 01:45:19;;;;;;;37.97;19.50;;;3.30;99.90;;;;;;5107312;28;20039;-83
2022/12/02 01:47:45;;;;;;;41.88;19.10;;;3.20;99.90;;;;;;5104989;28;20051;-82
2022/12/02 01:50:13;;;;;;;40.55;18.55;;;3.20;99.90;;;;;;5089607;28;20093;-83
2022/12/02 01:52:39;;;;;;;41.08;19.23;;;3.30;99.90;;;;;;5107109;28;20040;-82
2022/12/02 01:55:11;;;;;;;40.88;19.73;;;3.70;99.90;;;;;;5089718;28;20040;-83
2022/12/02 01:57:37;;;;;;;39.10;19.73;;;4.70;99.90;;;;;;5090335;28;20036;-82
2022/12/02 02:00:04;;;;;;;36.05;18.42;;;3.20;99.90;;;;;;5082549;28;20370;-83
2022/12/02 02:02:34;;;;;;;38.90;18.45;;;3.20;99.90;;;;;;5090688;28;20036;-83
2022/12/02 02:05:14;;;;;;;41.25;18.83;;;3.20;99.90;;;;;;5072936;28;20028;-82
2022/12/02 02:07:43;;;;;;;42.25;20.42;;;3.20;99.90;;;;;;5086977;28;20036;-83
2022/12/02 02:10:09;;;;;;;36.13;17.98;;;4.80;99.90;;;;;;5098171;28;20071;-82
2022/12/02 02:12:35;;;;;;;39.63;19.13;;;3.20;99.90;;;;;;5091346;28;20036;-83
2022/12/02 02:15:06;;;;;;;39.38;19.30;;;3.20;99.90;;;;;;5097415;28;20043;-83
2022/12/02 02:17:32;;;;;;;41.17;18.75;;;3.20;99.90;;;;;;5091935;28;20032;-83
2022/12/02 02:19:58;;;;;;;39.67;20.65;;;3.20;99.90;;;;;;5091228;28;20409;-82
2022/12/02 02:22:36;;;;;;;40.83;19.52;;;4.50;99.90;;;;;;5102153;28;20108;-84
2022/12/02 02:25:08;;;;;;;42.78;20.23;;;3.10;99.90;;;;;;5092912;28;20049;-83
2022/12/02 02:27:37;;;;;;;39.67;18.33;;;3.10;99.90;;;;;;5097988;28;20076;-83
2022/12/02 02:30:04;;;;;;;39.65;19.33;;;3.70;99.90;;;;;;5100179;28;20047;-83
2022/12/02 02:32:32;;;;;;;36.47;19.08;;;3.10;99.90;;;;;;5098447;28;20039;-83
2022/12/02 02:34:58;;;;;;;38.55;19.05;;;4.90;99.90;;;;;;5105801;28;20093;-83
2022/12/02 02:37:24;;;;;;;39.42;19.25;;;4.70;99.90;;;;;;5089444;28;20481;-82
2022/12/02 02:39:51;;;;;;;40.95;19.17;;;3.00;99.90;;;;;;5101818;28;20042;-82
2022/12/02 02:42:16;;;;;;;40.95;19.92;;;4.20;99.90;;;;;;5096204;28;20479;-83
2022/12/02 02:44:45;;;;;;;37.13;18.23;;;3.70;99.90;;;;;;5091630;28;20045;-84
2022/12/02 02:47:11;;;;;;;36.33;18.85;;;2.90;99.90;;;;;;5088602;28;20047;-82
2022/12/02 02:49:36;;;;;;;40.42;19.75;;;3.70;99.90;;;;;;5091368;28;20043;-83
2022/12/02 02:52:02;;;;;;;35.35;17.85;;;2.90;99.90;;;;;;5091138;28;20039;-82
2022/12/02 02:54:28;;;;;;;36.58;19.30;;;2.90;99.90;;;;;;5098321;28;20040;-83
2022/12/02 02:56:54;;;;;;;36.67;18.58;;;2.90;99.90;;;;;;5099727;28;20036;-83
2022/12/02 02:59:20;;;;;;;38.78;19.33;;;3.30;99.90;;;;;;5074102;28;20505;-82
2022/12/02 03:01:49;;;;;;;38.10;18.75;;;4.30;99.90;;;;;;5094106;28;20132;-82
2022/12/02 03:04:18;;;;;;;37.85;18.60;;;2.90;99.90;;;;;;5093273;28;20040;-82
2022/12/02 03:06:45;;;;;;;36.20;18.88;;;2.90;99.90;;;;;;5084205;28;20110;-83
2022/12/02 03:09:14;;;;;;;36.83;18.45;;;4.10;99.90;;;;;;5093462;28;20059;-83
2022/12/02 03:11:42;;;;;;;36.47;18.27;;;2.90;99.90;;;;;;5106272;28;20040;-83
2022/12/02 03:14:11;;;;;;;40.60;20.45;;;2.90;99.90;;;;;;5103962;28;20497;-82
2022/12/02 03:16:36;;;;;;;35.60;18.63;;;3.00;99.90;;;;;;5072712;28;20036;-83
2022/12/02 03:19:06;;;;;;;37.97;18.05;;;2.80;99.90;;;;;;5078877;28;20040;-84
2022/12/02 03:21:33;;;;;;;37.47;18.05;;;2.80;99.90;;;;;;5090676;28;20084;-82
2022/12/02 03:24:01;;;;;;;39.78;18.83;;;1.10;99.90;;;;;;5089544;28;20050;-81
2022/12/02 03:26:27;;;;;;;36.30;18.58;;;2.80;99.90;;;;;;5089416;28;20091;-82
2022/12/02 03:28:54;;;;;;;35.83;16.65;;;2.80;99.90;;;;;;5101448;28;20046;-83
2022/12/02 03:31:21;;;;;;;35.75;18.08;;;2.80;99.90;;;;;;5077640;28;20105;-83
2022/12/02 03:33:48;;;;;;;40.15;18.52;;;3.70;99.90;;;;;;5090290;28;20051;-83
2022/12/02 03:36:14;;;;;;;40.08;18.70;;;2.80;99.90;;;;;;5090181;28;20233;-84
2022/12/02 03:38:39;;;;;;;39.80;18.80;;;2.80;99.90;;;;;;5087617;28;20095;-83
2022/12/02 03:41:06;;;;;;;36.63;18.13;;;2.80;99.90;;;;;;5090328;28;20043;-82
2022/12/02 03:43:32;;;;;;;39.95;18.73;;;2.80;99.90;;;;;;5089872;28;20498;-82
2022/12/02 03:45:59;;;;;;;37.85;17.83;;;2.80;99.90;;;;;;5080568;28;20043;-83
2022/12/02 03:48:26;;;;;;;38.20;17.80;;;2.80;99.90;;;;;;5075413;28;20032;-82
2022/12/02 03:50:52;;;;;;;40.92;18.92;;;2.80;99.90;;;;;;5069002;28;20124;-83
2022/12/02 03:53:19;;;;;;;38.00;18.20;;;2.80;99.90;;;;;;5090884;28;20044;-82
2022/12/02 03:55:45;;;;;;;37.45;17.90;;;3.00;99.90;;;;;;5089918;28;20142;-81
2022/12/02 03:58:11;;;;;;;44.53;18.77;;;2.80;99.90;;;;;;5100467;28;20122;-82
2022/12/02 04:00:37;;;;;;;42.83;19.42;;;2.80;99.90;;;;;;5099031;28;20040;-82
2022/12/02 04:03:04;;;;;;;38.08;18.50;;;2.80;99.90;;;;;;5101540;28;20097;-82
2022/12/02 04:05:30;;;;;;;38.88;18.00;;;3.40;99.90;;;;;;5090176;28;20169;-82
2022/12/02 04:07:55;;;;;;;39.65;18.75;;;3.40;99.90;;;;;;5089454;28;20039;-83
2022/12/02 04:10:21;;;;;;;38.10;18.83;;;2.80;99.90;;;;;;5078232;28;20043;-82
2022/12/02 04:12:47;;;;;;;42.45;18.90;;;2.80;99.90;;;;;;5110810;28;20047;-82
2022/12/02 04:15:13;;;;;;;40.38;18.42;;;2.80;99.90;;;;;;5086397;28;20129;-82
2022/12/02 04:17:38;;;;;;;41.70;19.27;;;2.80;99.90;;;;;;5089393;28;20047;-82
2022/12/02 04:20:06;;;;;;;43.58;20.02;;;4.30;99.90;;;;;;5086740;28;20032;-83
2022/12/02 04:22:31;;;;;;;41.78;20.23;;;2.80;99.90;;;;;;5072310;28;20417;-82
2022/12/02 04:24:58;;;;;;;43.67;19.02;;;3.10;99.90;;;;;;5104820;28;20044;-82
2022/12/02 04:27:25;;;;;;;40.90;19.50;;;2.80;99.90;;;;;;5108330;28;20040;-83
2022/12/02 04:29:51;;;;;;;40.97;18.98;;;2.80;99.90;;;;;;5088966;28;20032;-82
2022/12/02 04:32:17;;;;;;;44.90;19.80;;;3.80;99.90;;;;;;5081655;28;20622;-83
2022/12/02 04:34:43;;;;;;;41.42;19.67;;;2.90;99.90;;;;;;5074147;28;20056;-83
2022/12/02 04:37:09;;;;;;;42.55;20.20;;;4.40;99.90;;;;;;5109026;28;20058;-83
2022/12/02 04:39:35;;;;;;;41.30;20.60;;;3.50;99.90;;;;;;5075499;28;20034;-82
2022/12/02 04:42:00;;;;;;;46.35;20.73;;;2.80;99.90;;;;;;5098307;28;20062;-83
2022/12/02 04:44:26;;;;;;;44.13;19.85;;;2.80;99.90;;;;;;5072199;28;20044;-82
2022/12/02 04:46:52;;;;;;;45.22;20.42;;;3.30;99.90;;;;;;5078390;28;20040;-83
2022/12/02 04:49:18;;;;;;;44.10;20.33;;;2.90;99.90;;;;;;5085162;28;20105;-82
2022/12/02 04:51:44;;;;;;;45.25;20.30;;;4.00;99.90;;;;;;5109591;28;20040;-82
2022/12/02 04:54:09;;;;;;;45.95;21.40;;;2.80;99.90;;;;;;5090647;28;20043;-83
2022/12/02 04:56:35;;;;;;;45.65;20.48;;;3.40;99.90;;;;;;5106923;28;20126;-83
2022/12/02 04:59:01;;;;;;;42.28;19.70;;;2.90;99.90;;;;;;5092199;28;20476;-83
2022/12/02 05:01:27;;;;;;;44.63;20.33;;;3.40;99.90;;;;;;5098084;28;20035;-83
2022/12/02 05:03:53;;;;;;;46.28;19.70;;;2.90;99.90;;;;;;5099041;28;20046;-83
2022/12/02 05:06:19;;;;;;;46.10;20.48;;;4.40;99.90;;;;;;5071251;28;20040;-82
2022/12/02 05:08:44;;;;;;;48.67;20.25;;;2.90;99.90;;;;;;5071331;28;20098;-82
2022/12/02 05:11:10;;;;;;;46.83;21.90;;;4.00;99.90;;;;;;5091319;28;20505;-82
2022/12/02 05:13:36;;;;;;;41.70;20.83;;;2.90;99.90;;;;;;5065342;28;20405;-83
2022/12/02 05:16:05;;;;;;;43.22;20.13;;;4.30;99.90;;;;;;5091029;28;20441;-82
2022/12/02 05:18:31;;;;;;;49.17;20.92;;;2.90;99.90;;;;;;5062558;28;20124;-82
2022/12/02 05:20:56;;;;;;;44.50;20.02;;;2.90;99.90;;;;;;5105295;28;20031;-81
2022/12/02 05:23:22;;;;;;;43.58;20.25;;;3.60;99.90;;;;;;5089408;28;20097;-83
2022/12/02 05:25:51;;;;;;;49.08;21.40;;;2.90;99.90;;;;;;5087460;28;20047;-83
2022/12/02 05:28:16;;;;;;;50.00;21.75;;;2.90;99.90;;;;;;5090059;28;20147;-82
2022/12/02 05:30:42;;;;;;;43.22;19.85;;;2.90;99.90;;;;;;5072114;28;20098;-81
2022/12/02 05:33:08;;;;;;;45.58;20.63;;;4.40;99.90;;;;;;5071480;28;20100;-82
2022/12/02 05:35:33;;;;;;;48.97;21.25;;;3.00;99.90;;;;;;5090616;28;20031;-83
2022/12/02 05:37:59;;;;;;;50.40;21.55;;;3.00;99.90;;;;;;5079370;28;20032;-82
2022/12/02 05:40:25;;;;;;;46.38;20.73;;;3.90;99.90;;;;;;5088185;28;20032;-82
2022/12/02 05:42:50;;;;;;;41.17;19.67;;;3.00;99.90;;;;;;5086616;28;20270;-83
2022/12/02 05:45:21;;;;;;;47.50;21.15;;;3.00;99.90;;;;;;5088205;28;20043;-83
2022/12/02 05:47:51;;;;;;;46.90;20.38;;;3.00;99.90;;;;;;5092189;28;20130;-83
2022/12/02 05:50:18;;;;;;;46.75;20.55;;;4.60;99.90;;;;;;5099254;28;20063;-82
2022/12/02 05:52:43;;;;;;;45.92;20.88;;;3.00;99.90;;;;;;5093862;28;20040;-82
2022/12/02 05:55:18;;;;;;;46.00;21.00;;;3.00;99.90;;;;;;5077698;28;20135;-82
2022/12/02 05:57:46;;;;;;;46.65;20.20;;;3.00;99.90;;;;;;5093077;28;20036;-82
2022/12/02 06:00:13;;;;;;;46.50;21.23;;;4.40;99.90;;;;;;5093296;28;20036;-82
2022/12/02 06:03:00;;;;;;;46.75;21.98;;;3.00;99.90;;;;;;5079591;28;20399;-82
2022/12/02 06:05:35;;;;;;;48.67;20.75;;;3.40;99.90;;;;;;5092204;28;20039;-82
2022/12/02 06:08:24;;;;;;;45.10;19.92;;;3.00;99.90;;;;;;5096574;28;20035;-83
2022/12/02 06:10:54;;;;;;;47.60;21.17;;;3.00;99.90;;;;;;5088333;28;20043;-82
2022/12/02 06:13:22;;;;;;;51.45;21.65;;;4.60;99.90;;;;;;5086456;28;20516;-83
2022/12/02 06:15:48;;;;;;;49.90;21.45;;;3.00;99.90;;;;;;5100462;28;20040;-83
2022/12/02 06:18:28;;;;;;;50.40;22.60;;;3.40;99.90;;;;;;5088034;28;20064;-83
2022/12/02 06:20:56;;;;;;;50.63;21.33;;;3.00;99.90;;;;;;5095857;28;20048;-83
2022/12/02 06:23:24;;;;;;;49.70;22.27;;;3.40;99.90;;;;;;5098767;28;20083;-83
2022/12/02 06:25:52;;;;;;;50.92;22.83;;;3.10;99.90;;;;;;5079173;28;20066;-82
2022/12/02 06:28:33;;;;;;;51.00;21.67;;;4.40;99.90;;;;;;5105951;28;20043;-83
2022/12/02 06:31:10;;;;;;;56.85;22.98;;;4.50;99.90;;;;;;5109491;28;20535;-83
2022/12/02 06:33:37;;;;;;;52.40;22.65;;;3.10;99.90;;;;;;5098454;28;20044;-82
2022/12/02 06:36:09;;;;;;;51.17;22.95;;;3.10;99.90;;;;;;5085881;28;20055;-82
2022/12/02 06:38:47;;;;;;;52.58;22.75;;;3.10;99.90;;;;;;5106902;28;20051;-83
2022/12/02 06:41:22;;;;;;;50.17;22.20;;;3.20;99.90;;;;;;5094525;28;20043;-81
2022/12/02 06:46:38;;;;;;;48.58;22.02;;;3.10;99.90;;;;;;5092343;28;20113;-83
2022/12/02 06:49:32;;;;;;;53.80;22.55;;;3.20;99.90;;;;;;5090859;28;20052;-83
2022/12/02 06:52:05;;;;;;;56.63;23.83;;;3.20;99.90;;;;;;5074003;28;20048;-82
2022/12/02 06:54:31;;;;;;;49.67;21.98;;;3.40;99.90;;;;;;5101585;28;20040;-82
2022/12/02 06:56:59;;;;;;;50.90;21.02;;;3.20;99.90;;;;;;5107171;28;20036;-83
2022/12/02 06:59:27;;;;;;;54.78;22.65;;;3.40;99.90;;;;;;5103358;28;20098;-83
2022/12/02 07:01:55;;;;;;;50.85;21.92;;;3.30;99.90;;;;;;5080614;28;20044;-82
2022/12/02 07:04:44;;;;;;;52.05;23.75;;;3.30;99.90;;;;;;5091949;28;20040;-82
2022/12/02 07:07:22;;;;;;;53.88;22.83;;;3.30;99.90;;;;;;5110816;28;20320;-82
2022/12/02 07:09:51;;;;;;;49.50;22.17;;;3.30;99.90;;;;;;5094058;28;20459;-83
2022/12/02 07:12:44;;;;;;;58.17;23.48;;;2.80;99.90;;;;;;5110672;28;20047;-82
2022/12/02 07:15:31;;;;;;;53.03;22.73;;;3.30;99.90;;;;;;5098551;28;20075;-83
2022/12/02 07:18:10;;;;;;;54.45;22.35;;;4.40;99.90;;;;;;5089207;28;20115;-83
2022/12/02 07:20:38;;;;;;;50.10;22.50;;;4.90;99.90;;;;;;5093850;28;20552;-82
2022/12/02 07:23:25;;;;;;;54.30;22.83;;;3.30;99.90;;;;;;5090798;28;20108;-83
2022/12/02 07:25:53;;;;;;;49.40;21.98;;;3.10;99.90;;;;;;5096672;28;20039;-83
2022/12/02 07:28:41;;;;;;;48.88;22.52;;;4.00;99.90;;;;;;5109343;28;20031;-84
2022/12/02 07:31:22;;;;;;;51.30;21.58;;;4.00;99.90;;;;;;5094300;28;20137;-83
2022/12/02 07:33:49;;;;;;;48.35;22.48;;;4.50;99.90;;;;;;5072829;28;20048;-83
2022/12/02 07:36:14;;;;;;;48.58;22.63;;;3.20;99.90;;;;;;5093114;28;20044;-82
2022/12/02 07:38:40;;;;;;;51.28;22.50;;;3.20;99.90;;;;;;5111894;28;20057;-84
2022/12/02 07:41:06;;;;;;;49.20;23.25;;;3.20;99.90;;;;;;5103691;28;20040;-82
2022/12/02 07:43:32;;;;;;;51.55;23.13;;;3.50;99.90;;;;;;5098170;28;20347;-83
2022/12/02 07:45:59;;;;;;;49.97;22.40;;;3.20;99.90;;;;;;5091467;28;20040;-83
2022/12/02 07:48:24;;;;;;;50.13;23.33;;;3.20;99.90;;;;;;5095798;28;20505;-83
2022/12/02 07:50:50;;;;;;;49.95;24.50;;;3.20;99.90;;;;;;5090611;28;20123;-82
2022/12/02 07:53:16;;;;;;;44.47;20.70;;;3.10;99.90;;;;;;5076358;28;20408;-81
2022/12/02 07:55:42;;;;;;;40.75;20.02;;;3.10;99.90;;;;;;5093580;28;20055;-83
2022/12/02 07:58:08;;;;;;;43.88;20.58;;;3.00;99.90;;;;;;5074578;28;20193;-83
2022/12/02 08:00:34;;;;;;;44.90;20.65;;;4.30;99.90;;;;;;5086349;28;20046;-83
2022/12/02 08:03:00;;;;;;;43.65;20.92;;;3.80;99.90;;;;;;5083146;28;20115;-83
2022/12/02 08:05:26;;;;;;;43.70;19.17;;;4.40;99.90;;;;;;5100611;28;20373;-84
2022/12/02 08:07:52;;;;;;;44.97;19.52;;;2.80;99.90;;;;;;5073549;28;20047;-83
2022/12/02 08:10:20;;;;;;;45.45;19.77;;;2.80;99.90;;;;;;5082366;28;20032;-83
2022/12/02 08:12:46;;;;;;;44.83;20.27;;;3.10;99.90;;;;;;5092723;28;20061;-82
2022/12/02 08:15:13;;;;;;;45.45;20.65;;;4.30;99.90;;;;;;5110135;28;20035;-83
2022/12/02 08:17:39;;;;;;;46.08;19.65;;;2.70;99.90;;;;;;5086605;28;20046;-84
2022/12/02 08:20:08;;;;;;;45.38;19.25;;;3.70;99.90;;;;;;5091631;28;20046;-81
2022/12/02 08:22:35;;;;;;;49.25;20.70;;;2.70;99.90;;;;;;5112944;28;20070;-83
2022/12/02 08:25:01;;;;;;;48.95;19.77;;;2.70;99.90;;;;;;5082493;28;20114;-82
2022/12/02 08:27:27;;;;;;;50.25;20.92;;;3.80;99.90;;;;;;5088568;28;20307;-83
2022/12/02 08:29:52;;;;;;;50.92;20.25;;;2.60;99.90;;;;;;5079047;28;20093;-82
2022/12/02 08:32:19;;;;;;;44.58;19.30;;;2.60;99.90;;;;;;5089733;28;20078;-83
2022/12/02 08:34:45;;;;;;;51.67;20.98;;;2.60;99.90;;;;;;5097781;28;20036;-83
2022/12/02 08:37:11;;;;;;;56.42;22.42;;;2.60;99.90;;;;;;5103843;28;20161;-84
2022/12/02 08:39:38;;;;;;;55.17;22.33;;;3.80;99.90;;;;;;5106723;28;20097;-83
2022/12/02 08:42:04;;;;;;;44.25;20.92;;;2.50;99.90;;;;;;5099047;28;20086;-83
2022/12/02 08:44:30;;;;;;;51.03;20.98;;;2.50;99.90;;;;;;5097714;28;20489;-82
2022/12/02 08:46:56;;;;;;;46.90;20.45;;;2.90;99.90;;;;;;5096386;28;20047;-82
2022/12/02 08:49:22;;;;;;;46.38;18.48;;;2.50;99.90;;;;;;5058199;28;20069;-82
2022/12/02 08:51:48;;;;;;;45.42;19.95;;;4.00;99.90;;;;;;5098472;28;20043;-83
2022/12/02 08:54:14;;;;;;;42.95;18.45;;;2.50;99.90;;;;;;5104341;28;20040;-83
2022/12/02 08:56:43;;;;;;;47.53;19.52;;;2.50;99.90;;;;;;5109307;28;20099;-85
2022/12/02 08:59:09;;;;;;;46.85;19.00;;;2.50;99.90;;;;;;5092046;28;20071;-86
2022/12/02 09:01:35;;;;;;;46.10;19.52;;;1.80;99.90;;;;;;5097718;28;20074;-83
2022/12/02 09:04:01;;;;;;;46.38;19.00;;;2.40;99.90;;;;;;5101782;28;20044;-83
2022/12/02 09:06:26;;;;;;;48.20;19.63;;;2.40;99.90;;;;;;5063133;28;20044;-84
2022/12/02 09:08:52;;;;;;;52.40;19.73;;;2.40;99.90;;;;;;5088306;28;20176;-83
2022/12/02 09:11:18;;;;;;;44.33;18.65;;;2.40;99.90;;;;;;5101422;28;20085;-83
2022/12/02 09:13:44;;;;;;;48.08;20.45;;;4.20;99.90;;;;;;5100170;28;20067;-83
2022/12/02 09:16:10;;;;;;;52.35;20.00;;;2.40;99.90;;;;;;5110285;28;20476;-83
2022/12/02 09:18:36;;;;;;;47.38;20.38;;;3.30;99.90;;;;;;5073246;28;20040;-83
2022/12/02 09:21:02;;;;;;;52.83;20.55;;;2.70;99.90;;;;;;5092037;28;20036;-82
2022/12/02 09:23:29;;;;;;;53.58;21.92;;;2.50;99.90;;;;;;5092011;28;20051;-84
2022/12/02 09:25:55;;;;;;;51.33;20.95;;;2.50;99.90;;;;;;5108143;28;20071;-83
2022/12/02 09:28:22;;;;;;;49.13;20.95;;;3.00;99.90;;;;;;5091922;28;20587;-84
2022/12/02 09:30:48;;;;;;;60.53;21.92;;;2.80;99.90;;;;;;5089243;28;20068;-84
2022/12/02 09:33:14;;;;;;;50.72;20.23;;;2.50;99.90;;;;;;5091119;28;20441;-84
2022/12/02 09:35:40;;;;;;;53.53;21.23;;;2.50;99.90;;;;;;5089751;28;20040;-84
2022/12/02 09:38:09;;;;;;;48.63;20.25;;;4.50;99.90;;;;;;5047974;28;20112;-83
2022/12/02 09:40:35;;;;;;;46.65;19.83;;;2.60;99.90;;;;;;5071481;28;20052;-83
2022/12/02 09:43:02;;;;;;;50.20;20.50;;;2.60;99.90;;;;;;5097618;28;20036;-82
2022/12/02 09:45:29;;;;;;;46.00;20.17;;;2.70;99.90;;;;;;5073925;28;20182;-83
2022/12/02 09:47:55;;;;;;;47.22;20.38;;;;;;;;;;5071491;28;20504;-83
2022/12/02 09:50:21;;;;;;;43.00;18.98;;;2.70;99.90;;;;;;5089104;28;20548;-84
2022/12/02 09:52:48;;;;;;;43.63;19.75;;;4.40;99.90;;;;;;5097967;28;20190;-83
2022/12/02 09:55:19;;;;;;;43.38;18.40;;;3.70;99.90;;;;;;5087344;28;20489;-82
2022/12/02 09:57:46;;;;;;;43.65;18.92;;;2.50;99.90;;;;;;5071334;28;20043;-84
2022/12/02 10:00:16;;;;;;;42.28;18.40;;;2.70;99.90;;;;;;5089468;28;20044;-84
2022/12/02 10:02:45;;;;;;;42.63;20.27;;;2.70;99.90;;;;;;5072426;28;20056;-83
2022/12/02 10:05:17;;;;;;;45.33;19.88;;;2.70;99.90;;;;;;5091770;28;20123;-84
2022/12/02 10:07:45;;;;;;;40.15;18.52;;;2.60;99.90;;;;;;5097210;28;20075;-84
2022/12/02 10:10:14;;;;;;;44.63;20.33;;;4.60;99.90;;;;;;5089299;28;20036;-83
2022/12/02 10:12:40;;;;;;;43.03;20.30;;;2.70;99.90;;;;;;5094811;28;20451;-83
2022/12/02 10:15:06;;;;;;;45.55;20.30;;;4.70;99.90;;;;;;5106544;28;20116;-83
2022/12/02 10:17:32;;;;;;;43.83;21.13;;;2.70;99.90;;;;;;5064740;28;20059;-84
2022/12/02 10:19:58;;;;;;;43.83;19.73;;;2.70;99.90;;;;;;5071393;28;20514;-84
2022/12/02 10:22:24;;;;;;;46.83;20.80;;;2.70;99.90;;;;;;5095671;28;20059;-83
2022/12/02 10:24:53;;;;;;;37.40;18.60;;;4.20;99.90;;;;;;5087835;28;20036;-84
2022/12/02 10:27:31;;;;;;;42.60;18.77;;;2.70;99.90;;;;;;5101027;28;20456;-83
2022/12/02 10:30:18;;;;;;;42.90;20.40;;;2.60;99.90;;;;;;5090145;28;20040;-83
2022/12/02 10:33:02;;;;;;;42.97;21.38;;;3.40;99.90;;;;;;5105181;28;20205;-85
2022/12/02 10:35:41;;;;;;;39.97;19.60;;;4.30;99.90;;;;;;5107632;28;20048;-84
2022/12/02 10:38:25;;;;;;;39.97;19.33;;;2.60;99.90;;;;;;5096177;28;20032;-84
2022/12/02 10:40:51;;;;;;;43.75;22.00;;;2.60;99.90;;;;;;5103837;28;20028;-84
2022/12/02 10:43:19;;;;;;;40.80;20.73;;;2.60;99.90;;;;;;5106657;28;20401;-83
2022/12/02 10:45:57;;;;;;;41.85;22.05;;;2.60;99.90;;;;;;5091601;28;20051;-82
2022/12/02 10:48:23;;;;;;;40.80;20.73;;;2.70;99.90;;;;;;5089943;28;20123;-84
2022/12/02 10:50:49;;;;;;;41.72;21.95;;;2.60;99.90;;;;;;5091436;28;20131;-83
2022/12/02 10:53:19;;;;;;;41.92;20.60;;;2.60;99.90;;;;;;5108616;28;20067;-84
2022/12/02 10:55:45;;;;;;;41.70;21.63;;;2.60;99.90;;;;;;5096319;28;20048;-82
2022/12/02 10:58:15;;;;;;;42.22;22.23;;;2.60;99.90;;;;;;5094116;28;20043;-84
2022/12/02 11:00:41;;;;;;;44.75;22.83;;;2.60;99.90;;;;;;5097961;28;20181;-84
2022/12/02 11:03:07;;;;;;;43.70;22.88;;;2.60;99.90;;;;;;5112493;28;20181;-83
2022/12/02 11:05:34;;;;;;;42.15;22.10;;;2.60;99.90;;;;;;5079944;28;20032;-83
2022/12/02 11:08:25;;;;;;;44.67;22.17;;;2.60;99.90;;;;;;5108050;28;20403;-84
2022/12/02 11:11:34;;;;;;;44.38;23.35;;;2.70;99.90;;;;;;5089935;28;20055;-83
2022/12/02 11:14:03;;;;;;;46.30;22.63;;;2.70;99.90;;;;;;5086933;28;20410;-84
2022/12/02 11:16:32;;;;;;;47.25;24.23;;;2.60;99.90;;;;;;5073797;28;20113;-84
2022/12/02 11:19:05;;;;;;;46.88;23.83;;;2.70;99.90;;;;;;5109404;28;20050;-83
2022/12/02 11:21:32;;;;;;;44.45;22.25;;;4.40;99.90;;;;;;5091640;28;20044;-83
2022/12/02 11:24:26;;;;;;;43.60;23.63;;;2.70;99.90;;;;;;5089352;28;20119;-82
2022/12/02 11:26:58;;;;;;;44.88;24.15;;;2.70;99.90;;;;;;5090321;28;20104;-82
2022/12/02 11:29:27;;;;;;;43.10;22.80;;;2.70;99.90;;;;;;5091373;28;20040;-83
2022/12/02 11:32:20;;;;;;;42.55;23.70;;;2.80;99.90;;;;;;5082884;28;20097;-85
2022/12/02 11:34:52;;;;;;;48.27;25.03;;;2.70;99.90;;;;;;5079433;28;20116;-84
2022/12/02 11:37:39;;;;;;;46.45;25.33;;;2.80;99.90;;;;;;5097947;28;20113;-84
2022/12/02 11:40:12;;;;;;;43.05;24.27;;;3.20;99.90;;;;;;5090460;28;20123;-83
2022/12/02 11:42:39;;;;;;;46.78;24.45;;;2.80;99.90;;;;;;5086975;28;20036;-83
2022/12/02 11:45:14;;;;;;;45.13;24.90;;;2.90;99.90;;;;;;5097962;28;20535;-84
2022/12/02 11:48:00;;;;;;;40.47;22.02;;;2.80;99.90;;;;;;5090886;28;20049;-83
2022/12/02 11:50:27;;;;;;;39.70;22.88;;;4.10;99.90;;;;;;5107583;28;20075;-83
2022/12/02 11:52:57;;;;;;;44.08;23.42;;;2.90;99.90;;;;;;5091774;28;20066;-83
2022/12/02 11:55:34;;;;;;;40.35;22.50;;;4.70;99.90;;;;;;5089995;28;20035;-84
2022/12/02 11:58:01;;;;;;;39.40;22.27;;;2.90;99.90;;;;;;5089621;28;20043;-83
2022/12/02 12:00:33;;;;;;;42.22;23.52;;;2.80;99.90;;;;;;5090166;28;20089;-85
2022/12/02 12:03:11;;;;;;;38.70;21.23;;;2.60;99.90;;;;;;5098996;28;20481;-83
2022/12/02 12:05:39;;;;;;;39.90;22.48;;;2.80;99.90;;;;;;5074708;28;20075;-84
2022/12/02 12:08:05;;;;;;;39.58;22.10;;;2.80;99.90;;;;;;5105280;28;20046;-84
2022/12/02 12:10:39;;;;;;;41.88;22.23;;;4.70;99.90;;;;;;5086635;28;20732;-83
2022/12/02 12:13:26;;;;;;;38.40;20.90;;;2.80;99.90;;;;;;5107186;28;20959;-83
2022/12/02 12:16:00;;;;;;;43.40;22.55;;;2.80;99.90;;;;;;5087785;28;20040;-83
2022/12/02 12:18:47;;;;;;;41.42;22.38;;;3.40;99.90;;;;;;5086172;28;21162;-83
2022/12/02 12:21:40;;;;;;;42.75;22.95;;;4.20;99.90;;;;;;5089657;28;20172;-83
2022/12/02 12:24:24;;;;;;;38.88;21.20;;;2.80;99.90;;;;;;5080768;28;20123;-84
2022/12/02 12:27:02;;;;;;;37.90;20.20;;;2.80;99.90;;;;;;5090294;28;20059;-82
2022/12/02 12:29:37;;;;;;;42.40;22.60;;;3.70;99.90;;;;;;5107935;28;20039;-80
2022/12/02 12:32:04;;;;;;;38.00;20.95;;;4.80;99.90;;;;;;5077317;28;20036;-84
2022/12/02 12:34:30;;;;;;;37.90;20.63;;;2.60;99.90;;;;;;5062691;28;20552;-83
2022/12/02 12:36:57;;;;;;;37.95;21.45;;;2.80;99.90;;;;;;5103843;28;20044;-84
2022/12/02 12:39:22;;;;;;;40.90;21.27;;;2.70;99.90;;;;;;5095711;28;20071;-84
2022/12/02 12:41:48;;;;;;;34.25;18.80;;;3.40;99.90;;;;;;5103156;28;20075;-81
2022/12/02 12:44:17;;;;;;;37.28;20.63;;;2.90;99.90;;;;;;5083688;28;20473;-84
2022/12/02 12:46:43;;;;;;;38.92;21.45;;;2.80;99.90;;;;;;5071750;28;21124;-84
2022/12/02 12:49:09;;;;;;;39.35;22.02;;;4.20;99.90;;;;;;5106274;28;20405;-83
2022/12/02 12:51:37;;;;;;;39.20;21.25;;;3.90;99.90;;;;;;5100692;28;20074;-83
2022/12/02 12:54:05;;;;;;;37.58;20.77;;;2.80;99.90;;;;;;5073423;28;20123;-84